Time;durP1;ratioP1;P1;durP2;ratioP2;P2;SDS_P1;SDS_P2;PMS_P1;PMS_P2;Temp;Humidity;BMP_temperature;BMP_pressure;BME280_temperature;BME280_humidity;BME280_pressure;Samples;Min_cycle;Max_cycle;Signal;HPM_P1;HPM_P2
2022/03/22 00:00:47;;;;;;;27.83;10.00;;;;;;;;;;4879169;29;20109;-83
2022/03/22 00:03:17;;;;;;;20.27;9.05;;;;;;;;;;4894743;29;20112;-84
2022/03/22 00:05:44;;;;;;;19.92;9.35;;;;;;;;;;4882107;29;20056;-83
2022/03/22 00:08:10;;;;;;;19.88;9.93;;;;;;;;;;4876743;29;20088;-84
2022/03/22 00:10:44;;;;;;;19.08;9.43;;;;;;;;;;4888901;29;20080;-84
2022/03/22 00:13:10;;;;;;;17.85;9.50;;;;;;;;;;4894164;29;20139;-84
2022/03/22 00:15:37;;;;;;;17.45;8.68;;;;;;;;;;4883058;29;20049;-84
2022/03/22 00:18:30;;;;;;;19.30;9.75;;;;;;;;;;4896608;29;20080;-83
2022/03/22 00:20:57;;;;;;;12.33;6.70;;;;;;;;;;4895420;29;20489;-84
2022/03/22 00:23:25;;;;;;;20.02;9.05;;;;;;;;;;4878374;29;20139;-84
2022/03/22 00:25:52;;;;;;;15.98;8.90;;;;;;;;;;4877256;29;20097;-84
2022/03/22 00:28:20;;;;;;;16.77;9.35;;;;;;;;;;4878776;29;20096;-84
2022/03/22 00:30:46;;;;;;;18.13;9.30;;;;;;;;;;4905009;29;20147;-84
2022/03/22 00:33:13;;;;;;;18.42;9.88;;;;;;;;;;4913748;29;20087;-84
2022/03/22 00:35:40;;;;;;;18.70;9.32;;;;;;;;;;4892838;29;20556;-84
2022/03/22 00:38:08;;;;;;;;;;;;;;;;;;4913560;29;20079;-83
2022/03/22 00:40:34;;;;;;;20.67;8.45;;;;;;;;;;4911206;29;19923;-84
2022/03/22 00:43:01;;;;;;;16.33;7.20;;;;;;;;;;4899401;29;20257;-84
2022/03/22 00:45:33;;;;;;;17.92;8.98;;;;;;;;;;4914637;29;20134;-83
2022/03/22 00:48:02;;;;;;;19.73;9.90;;;;;;;;;;4914924;29;20052;-84
2022/03/22 00:50:33;;;;;;;19.27;9.35;;;;;;;;;;4914618;29;20135;-84
2022/03/22 00:53:00;;;;;;;17.83;10.07;;;;;;;;;;4896878;29;20143;-84
2022/03/22 00:55:27;;;;;;;14.50;7.07;;;;;;;;;;4913819;29;20129;-84
2022/03/22 00:57:54;;;;;;;18.98;9.27;;;;;;;;;;4914200;29;20052;-84
2022/03/22 01:00:23;;;;;;;22.02;9.88;;;;;;;;;;4913539;29;20079;-84
2022/03/22 01:02:50;;;;;;;18.60;9.70;;;;;;;;;;4896024;29;20448;-83
2022/03/22 01:05:19;;;;;;;20.23;10.60;;;;;;;;;;4914529;29;20052;-83
2022/03/22 01:07:50;;;;;;;18.42;9.48;;;;;;;;;;4915177;29;20180;-84
2022/03/22 01:10:17;;;;;;;20.40;9.93;;;;;;;;;;4913443;29;20064;-83
2022/03/22 01:12:44;;;;;;;20.95;9.95;;;;;;;;;;4903928;29;20087;-84
2022/03/22 01:15:26;;;;;;;17.15;9.70;;;;;;;;;;4895189;29;20483;-83
2022/03/22 01:17:56;;;;;;;20.02;10.48;;;;;;;;;;4913618;29;20135;-83
2022/03/22 01:20:25;;;;;;;18.77;10.23;;;;;;;;;;4890658;29;20116;-84
2022/03/22 01:22:52;;;;;;;22.73;11.02;;;;;;;;;;4912805;29;20104;-83
2022/03/22 01:25:20;;;;;;;16.75;9.32;;;;;;;;;;4896453;29;20052;-84
2022/03/22 01:27:48;;;;;;;22.02;10.32;;;;;;;;;;4912022;29;20088;-84
2022/03/22 01:30:16;;;;;;;18.83;10.45;;;;;;;;;;4895610;29;20813;-84
2022/03/22 01:32:43;;;;;;;19.30;8.95;;;;;;;;;;4893543;29;20080;-83
2022/03/22 01:35:15;;;;;;;21.52;10.35;;;;;;;;;;4895346;29;20101;-84
2022/03/22 01:37:42;;;;;;;15.85;9.23;;;;;;;;;;4895838;29;20654;-83
2022/03/22 01:40:09;;;;;;;13.10;6.88;;;;;;;;;;4894031;29;20131;-84
2022/03/22 01:42:36;;;;;;;20.92;9.80;;;;;;;;;;4872111;29;20127;-83
2022/03/22 01:45:03;;;;;;;14.87;7.20;;;;;;;;;;4879204;29;20060;-83
2022/03/22 01:47:30;;;;;;;20.10;9.88;;;;;;;;;;4878219;29;20375;-84
2022/03/22 01:50:04;;;;;;;21.88;9.60;;;;;;;;;;4893216;29;20136;-84
2022/03/22 01:52:31;;;;;;;14.45;8.52;;;;;;;;;;4876042;29;20084;-84
2022/03/22 01:54:58;;;;;;;21.48;10.15;;;;;;;;;;4877771;29;20088;-83
2022/03/22 01:57:25;;;;;;;20.20;10.20;;;;;;;;;;4895455;29;20581;-83
2022/03/22 01:59:52;;;;;;;19.52;9.93;;;;;;;;;;4895162;29;20057;-83
2022/03/22 02:07:59;;;;;;;17.17;9.55;;;;;;;;;;4891867;29;20091;-84
2022/03/22 02:10:26;;;;;;;17.33;9.13;;;;;;;;;;4877917;29;20520;-83
2022/03/22 02:12:53;;;;;;;22.57;10.17;;;;;;;;;;4895345;29;20092;-83
2022/03/22 02:15:19;;;;;;;17.58;9.18;;;;;;;;;;4875169;29;20169;-83
2022/03/22 02:17:46;;;;;;;24.88;10.73;;;;;;;;;;4896039;29;20088;-84
2022/03/22 02:20:13;;;;;;;11.52;6.05;;;;;;;;;;4877174;29;20148;-82
2022/03/22 02:22:49;;;;;;;15.65;7.90;;;;;;;;;;4879026;29;20076;-83
2022/03/22 02:25:16;;;;;;;18.77;10.55;;;;;;;;;;4894348;29;20084;-83
2022/03/22 02:27:45;;;;;;;21.17;9.85;;;;;;;;;;4881066;29;20505;-84
2022/03/22 02:30:12;;;;;;;20.77;10.15;;;;;;;;;;4876269;29;20166;-84
2022/03/22 02:32:39;;;;;;;;;;;;;;;;;;4894536;29;20144;-84
2022/03/22 02:35:06;;;;;;;21.33;9.35;;;;;;;;;;4873347;29;19954;-84
2022/03/22 02:37:33;;;;;;;18.77;9.73;;;;;;;;;;4872502;29;20083;-83
2022/03/22 02:40:00;;;;;;;17.27;8.80;;;;;;;;;;4892831;29;20131;-84
2022/03/22 02:42:27;;;;;;;18.50;9.23;;;;;;;;;;4892449;29;20159;-83
2022/03/22 02:44:53;;;;;;;20.42;9.82;;;;;;;;;;4894917;29;20098;-84
2022/03/22 02:47:21;;;;;;;20.83;9.82;;;;;;;;;;4876279;29;20080;-83
2022/03/22 02:49:48;;;;;;;21.10;10.55;;;;;;;;;;4871861;29;20139;-84
2022/03/22 02:52:14;;;;;;;14.60;7.27;;;;;;;;;;4893062;29;20501;-84
2022/03/22 02:54:42;;;;;;;17.75;10.07;;;;;;;;;;4891251;29;20761;-84
2022/03/22 02:57:09;;;;;;;19.10;10.40;;;;;;;;;;4894605;29;20139;-84
2022/03/22 02:59:35;;;;;;;21.30;10.38;;;;;;;;;;4878494;29;20076;-83
2022/03/22 03:02:09;;;;;;;16.35;9.07;;;;;;;;;;4879259;29;20059;-84
2022/03/22 03:04:36;;;;;;;17.50;9.00;;;;;;;;;;4881803;29;20108;-84
2022/03/22 03:07:02;;;;;;;28.55;10.45;;;;;;;;;;4896853;29;20147;-83
2022/03/22 03:09:30;;;;;;;;;;;;;;;;;;4882011;29;20497;-83
2022/03/22 03:11:56;;;;;;;17.80;9.73;;;;;;;;;;4897821;29;20023;-83
2022/03/22 03:14:41;;;;;;;19.67;10.00;;;;;;;;;;4897164;29;20112;-84
2022/03/22 03:17:14;;;;;;;19.10;9.65;;;;;;;;;;4874399;29;20096;-84
2022/03/22 03:19:41;;;;;;;17.90;9.52;;;;;;;;;;4880285;29;20135;-83
2022/03/22 03:22:08;;;;;;;18.30;10.32;;;;;;;;;;4881284;29;20080;-83
2022/03/22 03:24:36;;;;;;;19.30;10.35;;;;;;;;;;4883072;29;20091;-84
2022/03/22 03:27:02;;;;;;;15.38;8.25;;;;;;;;;;4876272;29;20052;-84
2022/03/22 03:29:28;;;;;;;21.67;10.93;;;;;;;;;;4896990;29;20481;-82
2022/03/22 03:31:55;;;;;;;19.80;10.45;;;;;;;;;;4914956;29;20131;-83
2022/03/22 03:34:22;;;;;;;20.52;10.07;;;;;;;;;;4915612;29;20110;-84
2022/03/22 03:36:49;;;;;;;17.83;9.40;;;;;;;;;;4916615;29;20089;-83
2022/03/22 03:39:16;;;;;;;18.35;10.05;;;;;;;;;;4898061;29;20044;-83
2022/03/22 03:41:55;;;;;;;13.13;7.40;;;;;;;;;;4907340;29;20478;-84
2022/03/22 03:47:07;;;;;;;18.70;9.95;;;;;;;;;;4914403;29;20051;-83
2022/03/22 03:49:38;;;;;;;24.02;10.60;;;;;;;;;;4895099;29;20155;-84
2022/03/22 03:52:06;;;;;;;19.35;9.48;;;;;;;;;;4892487;29;20048;-83
2022/03/22 03:54:33;;;;;;;24.58;10.18;;;;;;;;;;4897999;29;20056;-83
2022/03/22 03:57:00;;;;;;;18.73;10.15;;;;;;;;;;4915303;29;20112;-84
2022/03/22 03:59:27;;;;;;;15.70;8.43;;;;;;;;;;4899420;29;20075;-82
2022/03/22 04:01:53;;;;;;;16.25;6.80;;;;;;;;;;4914794;29;20143;-83
2022/03/22 04:04:22;;;;;;;18.10;9.15;;;;;;;;;;4911008;29;20058;-83
2022/03/22 04:06:48;;;;;;;40.30;9.73;;;;;;;;;;4899030;29;20134;-83
2022/03/22 04:09:15;;;;;;;20.52;10.52;;;;;;;;;;4915703;29;20208;-83
2022/03/22 04:11:48;;;;;;;18.00;9.32;;;;;;;;;;4895907;29;20131;-83
2022/03/22 04:14:14;;;;;;;18.77;10.27;;;;;;;;;;4899130;29;20067;-83
2022/03/22 04:16:41;;;;;;;19.45;10.30;;;;;;;;;;4915069;29;20703;-83
2022/03/22 04:19:08;;;;;;;20.10;10.20;;;;;;;;;;4912485;29;20076;-84
2022/03/22 04:21:35;;;;;;;17.35;9.80;;;;;;;;;;4895383;29;20056;-83
2022/03/22 04:24:02;;;;;;;20.35;10.57;;;;;;;;;;4912064;29;20055;-83
2022/03/22 04:26:31;;;;;;;20.55;10.32;;;;;;;;;;4917345;29;20052;-83
2022/03/22 04:34:43;;;;;;;26.20;11.75;;;;;;;;;;4883615;29;20095;-83
2022/03/22 04:37:13;;;;;;;24.20;12.20;;;;;;;;;;4895816;29;20079;-83
2022/03/22 04:39:41;;;;;;;26.60;14.32;;;;;;;;;;4897460;29;20423;-84
2022/03/22 04:42:07;;;;;;;24.80;11.70;;;;;;;;;;4915267;29;20151;-83
2022/03/22 04:44:42;;;;;;;18.73;10.15;;;;;;;;;;4915348;29;20063;-82
2022/03/22 04:47:08;;;;;;;;;;;;;;;;;;4898661;29;20510;-83
2022/03/22 04:49:35;;;;;;;17.48;9.20;;;;;;;;;;4914492;29;19966;-83
2022/03/22 04:57:55;;;;;;;26.08;10.73;;;;;;;;;;4913218;29;20127;-84
2022/03/22 05:00:21;;;;;;;21.33;9.80;;;;;;;;;;4901426;29;20060;-83
2022/03/22 05:02:47;;;;;;;21.77;10.63;;;;;;;;;;4895545;29;20048;-84
2022/03/22 05:06:25;;;;;;;21.00;10.35;;;;;;;;;;4914387;29;20054;-84
2022/03/22 05:08:04;;;;;;;19.75;10.23;;;;;;;;;;4913919;29;20654;-84
2022/03/22 05:10:34;;;;;;;30.77;11.90;;;;;;;;;;4893709;29;20143;-84
2022/03/22 05:13:01;;;;;;;27.63;13.95;;;;;;;;;;4895658;29;20098;-84
2022/03/22 05:15:27;;;;;;;29.75;14.23;;;;;;;;;;4892401;29;20079;-83
2022/03/22 05:18:01;;;;;;;28.90;14.20;;;;;;;;;;4912108;29;20135;-83
2022/03/22 05:20:28;;;;;;;26.25;13.50;;;;;;;;;;4897766;29;20143;-83
2022/03/22 05:22:58;;;;;;;23.05;12.80;;;;;;;;;;4892496;29;20135;-84
2022/03/22 05:25:31;;;;;;;25.08;12.10;;;;;;;;;;4887339;29;20536;-82
2022/03/22 05:27:59;;;;;;;21.95;12.02;;;;;;;;;;4914459;29;20052;-83
2022/03/22 05:30:25;;;;;;;22.23;12.18;;;;;;;;;;4897140;29;20490;-85
2022/03/22 05:32:52;;;;;;;20.17;10.38;;;;;;;;;;4911960;29;20056;-84
2022/03/22 05:35:19;;;;;;;29.83;15.05;;;;;;;;;;4897289;29;20106;-83
2022/03/22 05:37:45;;;;;;;24.52;12.18;;;;;;;;;;4898059;29;20058;-83
2022/03/22 05:40:12;;;;;;;23.55;10.77;;;;;;;;;;4912980;29;20071;-84
2022/03/22 05:42:41;;;;;;;21.88;11.57;;;;;;;;;;4902355;29;20357;-84
2022/03/22 05:45:12;;;;;;;24.05;12.50;;;;;;;;;;4896412;29;20452;-84
2022/03/22 05:47:39;;;;;;;26.10;13.68;;;;;;;;;;4898493;29;20139;-84
2022/03/22 05:50:06;;;;;;;33.42;15.02;;;;;;;;;;4913004;29;20063;-84
2022/03/22 05:52:33;;;;;;;26.70;13.27;;;;;;;;;;4898194;29;20059;-84
2022/03/22 05:54:59;;;;;;;23.70;12.68;;;;;;;;;;4915102;29;20071;-85
2022/03/22 05:57:26;;;;;;;26.02;13.63;;;;;;;;;;4913415;29;20142;-85
2022/03/22 05:59:58;;;;;;;30.38;13.05;;;;;;;;;;4901499;29;20485;-84
2022/03/22 06:02:26;;;;;;;21.35;11.27;;;;;;;;;;4898035;29;20132;-84
2022/03/22 06:04:52;;;;;;;25.60;11.30;;;;;;;;;;4880834;29;20056;-83
2022/03/22 06:07:20;;;;;;;26.17;11.55;;;;;;;;;;4900452;29;20430;-84
2022/03/22 06:09:47;;;;;;;27.23;12.95;;;;;;;;;;4904407;29;20115;-85
2022/03/22 06:12:16;;;;;;;32.47;14.88;;;;;;;;;;4895411;29;20806;-85
2022/03/22 06:14:44;;;;;;;25.85;14.85;;;;;;;;;;4890572;29;20131;-84
2022/03/22 06:17:11;;;;;;;28.65;15.15;;;;;;;;;;4896360;29;20139;-85
2022/03/22 06:19:37;;;;;;;32.03;16.67;;;;;;;;;;4894212;29;20052;-84
2022/03/22 06:22:04;;;;;;;29.25;14.57;;;;;;;;;;4897505;29;20136;-85
2022/03/22 06:24:30;;;;;;;26.83;11.98;;;;;;;;;;4898872;29;20127;-84
2022/03/22 06:27:08;;;;;;;31.33;14.32;;;;;;;;;;4893117;29;20064;-84
2022/03/22 06:29:34;;;;;;;28.92;14.85;;;;;;;;;;4897409;29;20088;-84
2022/03/22 06:32:01;;;;;;;30.65;14.32;;;;;;;;;;4881542;28;20139;-85
2022/03/22 06:34:29;;;;;;;29.10;14.13;;;;;;;;;;4863265;29;20056;-85
2022/03/22 06:36:56;;;;;;;32.75;15.95;;;;;;;;;;4863486;29;20143;-85
2022/03/22 06:39:22;;;;;;;34.67;16.33;;;;;;;;;;4868407;29;20056;-85
2022/03/22 06:41:49;;;;;;;31.90;15.30;;;;;;;;;;4883379;29;20124;-85
2022/03/22 06:44:16;;;;;;;25.95;13.90;;;;;;;;;;4869095;29;20641;-84
2022/03/22 06:46:42;;;;;;;29.10;14.20;;;;;;;;;;4883239;29;20044;-85
2022/03/22 06:49:11;;;;;;;30.20;16.17;;;;;;;;;;4882865;29;20066;-84
2022/03/22 06:51:37;;;;;;;30.50;16.00;;;;;;;;;;4871805;29;20185;-85
2022/03/22 06:54:04;;;;;;;29.77;15.88;;;;;;;;;;4897801;29;20143;-85
2022/03/22 06:56:31;;;;;;;29.40;15.47;;;;;;;;;;4892149;29;20093;-85
2022/03/22 06:58:58;;;;;;;;;;;;;;;;;;4870183;29;20131;-85
2022/03/22 07:01:24;;;;;;;31.40;17.17;;;;;;;;;;4899400;29;20002;-84
2022/03/22 07:03:58;;;;;;;35.83;16.85;;;;;;;;;;4894233;29;20128;-84
2022/03/22 07:06:24;;;;;;;34.70;18.83;;;;;;;;;;4864435;29;20166;-85
2022/03/22 07:08:52;;;;;;;36.90;17.50;;;;;;;;;;4866099;29;20066;-84
2022/03/22 07:14:13;;;;;;;34.95;17.67;;;;;;;;;;4881814;29;20080;-85
2022/03/22 07:16:39;;;;;;;32.80;17.88;;;;;;;;;;4865449;29;20083;-84
2022/03/22 07:19:06;;;;;;;32.97;18.02;;;;;;;;;;4884395;29;20156;-84
2022/03/22 07:21:33;;;;;;;38.75;19.35;;;;;;;;;;4877453;29;20120;-84
2022/03/22 07:24:02;;;;;;;33.78;18.10;;;;;;;;;;4898068;29;20060;-85
2022/03/22 07:26:28;;;;;;;33.75;17.10;;;;;;;;;;4896335;29;20128;-84
2022/03/22 07:28:55;;;;;;;32.97;18.15;;;;;;;;;;4882000;29;20140;-85
2022/03/22 07:31:22;;;;;;;38.25;18.92;;;;;;;;;;4877473;29;20584;-84
2022/03/22 07:33:48;;;;;;;32.87;19.33;;;;;;;;;;4882607;29;20634;-85
2022/03/22 07:36:15;;;;;;;36.45;19.38;;;;;;;;;;4881747;29;20511;-85
2022/03/22 07:39:03;;;;;;;34.28;19.27;;;;;;;;;;4866890;29;20189;-85
2022/03/22 07:41:29;;;;;;;;;;;;;;;;;;4870715;29;20135;-86
2022/03/22 07:44:01;;;;;;;34.80;17.80;;;;;;;;;;4875749;29;20020;-85
2022/03/22 07:46:27;;;;;;;37.00;19.27;;;;;;;;;;4876640;29;20149;-85
2022/03/22 07:52:57;;;;;;;36.42;20.15;;;;;;;;;;4867658;29;20524;-85
2022/03/22 07:54:27;;;;;;;38.30;19.13;;;;;;;;;;4881808;29;20497;-85
2022/03/22 07:56:53;;;;;;;39.33;19.35;;;;;;;;;;4863876;29;20059;-85
2022/03/22 07:59:20;;;;;;;42.42;20.40;;;;;;;;;;4867364;29;20048;-86
2022/03/22 08:01:47;;;;;;;38.08;20.60;;;;;;;;;;4866737;29;20076;-85
2022/03/22 08:04:14;;;;;;;33.72;16.20;;;;;;;;;;4864095;29;20044;-86
2022/03/22 08:06:40;;;;;;;35.72;20.15;;;;;;;;;;4889951;29;20176;-84
2022/03/22 08:09:08;;;;;;;34.35;17.70;;;;;;;;;;4879819;29;20049;-85
2022/03/22 08:11:34;;;;;;;41.97;23.05;;;;;;;;;;4872328;29;20081;-85
2022/03/22 08:14:02;;;;;;;41.17;21.23;;;;;;;;;;4865059;29;20124;-85
2022/03/22 08:16:28;;;;;;;37.63;21.30;;;;;;;;;;4865898;29;20565;-85
2022/03/22 08:18:59;;;;;;;42.05;22.85;;;;;;;;;;4884831;29;20492;-85
2022/03/22 08:21:25;;;;;;;37.67;22.08;;;;;;;;;;4874720;29;20584;-85
2022/03/22 08:23:52;;;;;;;43.95;24.33;;;;;;;;;;4895940;29;20084;-86
2022/03/22 08:26:18;;;;;;;39.20;21.93;;;;;;;;;;4883530;29;20056;-85
2022/03/22 08:28:45;;;;;;;45.88;23.35;;;;;;;;;;4896793;29;20139;-84
2022/03/22 08:31:13;;;;;;;43.20;22.77;;;;;;;;;;4885247;29;20091;-85
2022/03/22 08:33:39;;;;;;;;;;;;;;;;;;4892587;29;20059;-85
2022/03/22 08:36:13;;;;;;;42.67;24.30;;;;;;;;;;4898184;29;19931;-85
2022/03/22 08:38:40;;;;;;;35.90;19.50;;;;;;;;;;4916488;29;20469;-85
2022/03/22 08:41:06;;;;;;;42.03;22.70;;;;;;;;;;4915221;29;20139;-85
2022/03/22 08:43:33;;;;;;;49.92;24.60;;;;;;;;;;4916846;29;20397;-85
2022/03/22 08:46:00;;;;;;;53.55;26.13;;;;;;;;;;4898766;29;20096;-85
2022/03/22 08:48:27;;;;;;;45.78;24.63;;;;;;;;;;4914174;29;20063;-84
2022/03/22 08:50:54;;;;;;;43.90;23.80;;;;;;;;;;4914870;29;20471;-85
2022/03/22 08:53:20;;;;;;;43.57;24.30;;;;;;;;;;4914796;29;20088;-86
2022/03/22 08:55:50;;;;;;;44.67;24.55;;;;;;;;;;4913830;29;20379;-85
2022/03/22 08:58:23;;;;;;;43.38;23.77;;;;;;;;;;4914170;29;20162;-85
2022/03/22 09:00:49;;;;;;;42.35;24.35;;;;;;;;;;4914893;29;20545;-86
2022/03/22 09:03:16;;;;;;;44.13;24.57;;;;;;;;;;4896850;29;20059;-84
2022/03/22 09:08:29;;;;;;;42.20;24.17;;;;;;;;;;4914001;29;19935;-86
2022/03/22 09:11:02;;;;;;;45.40;26.02;;;;;;;;;;4893582;29;20572;-85
2022/03/22 09:13:35;;;;;;;43.60;24.02;;;;;;;;;;4896660;29;20503;-85
2022/03/22 09:16:03;;;;;;;42.83;24.83;;;;;;;;;;4889668;29;20051;-85
2022/03/22 09:18:30;;;;;;;47.00;25.35;;;;;;;;;;4891127;29;20505;-86
2022/03/22 09:20:57;;;;;;;44.70;24.80;;;;;;;;;;4885116;29;20063;-85
2022/03/22 09:23:24;;;;;;;41.83;24.55;;;;;;;;;;4881608;29;20056;-85
2022/03/22 09:25:51;;;;;;;38.97;22.60;;;;;;;;;;4884650;29;20441;-86
2022/03/22 09:28:17;;;;;;;41.58;24.15;;;;;;;;;;4884587;29;20532;-86
2022/03/22 09:30:45;;;;;;;40.78;23.08;;;;;;;;;;4897090;28;20066;-85
2022/03/22 09:33:13;;;;;;;40.72;23.92;;;;;;;;;;4908351;29;20429;-86
2022/03/22 09:35:40;;;;;;;42.80;24.17;;;;;;;;;;4897460;29;20052;-86
2022/03/22 09:38:11;;;;;;;37.75;23.95;;;;;;;;;;4903447;29;20060;-86
2022/03/22 09:40:38;;;;;;;44.92;24.20;;;;;;;;;;4891595;29;20131;-85
2022/03/22 09:43:07;;;;;;;46.07;23.97;;;;;;;;;;4894183;29;20131;-86
2022/03/22 09:45:33;;;;;;;47.55;25.80;;;;;;;;;;4898606;29;20135;-86
2022/03/22 09:48:00;;;;;;;45.53;26.73;;;;;;;;;;4890133;29;20053;-86
2022/03/22 09:53:17;;;;;;;45.38;25.02;;;;;;;;;;4913801;29;20485;-84
2022/03/22 09:55:44;;;;;;;44.67;24.70;;;;;;;;;;4897567;29;20111;-84
2022/03/22 09:58:13;;;;;;;41.92;24.75;;;;;;;;;;4898483;29;20083;-85
2022/03/22 10:00:39;;;;;;;42.27;25.37;;;;;;;;;;4915374;29;20084;-86
2022/03/22 10:03:09;;;;;;;49.40;24.73;;;;;;;;;;4895708;29;20044;-86
2022/03/22 10:05:36;;;;;;;39.40;25.33;;;;;;;;;;4895849;29;20052;-86
2022/03/22 10:08:08;;;;;;;39.42;25.35;;;;;;;;;;4914484;29;20060;-87
2022/03/22 10:10:34;;;;;;;43.33;24.42;;;;;;;;;;4914805;29;20067;-86
2022/03/22 10:13:03;;;;;;;41.40;24.83;;;;;;;;;;4905072;29;20055;-84
2022/03/22 10:15:31;;;;;;;45.60;25.05;;;;;;;;;;4904387;29;20083;-87
2022/03/22 10:18:21;;;;;;;53.38;25.15;;;;;;;;;;4903780;29;20071;-86
2022/03/22 10:20:58;;;;;;;41.38;27.40;;;;;;;;;;4904809;29;20584;-86
2022/03/22 10:23:27;;;;;;;43.70;25.08;;;;;;;;;;4918199;29;20055;-85
2022/03/22 10:26:05;;;;;;;42.15;26.20;;;;;;;;;;4920082;29;20496;-86
2022/03/22 10:28:32;;;;;;;40.83;26.10;;;;;;;;;;4921120;29;20083;-86
2022/03/22 10:30:59;;;;;;;44.65;26.00;;;;;;;;;;4894828;29;20065;-86
2022/03/22 10:33:26;;;;;;;47.60;25.92;;;;;;;;;;4883232;29;20055;-86
2022/03/22 10:35:52;;;;;;;56.80;27.92;;;;;;;;;;4886420;29;20564;-85
2022/03/22 10:38:19;;;;;;;48.05;28.63;;;;;;;;;;4901721;29;20230;-86
2022/03/22 10:40:47;;;;;;;46.70;29.10;;;;;;;;;;4901775;29;20465;-86
2022/03/22 10:43:18;;;;;;;51.55;31.50;;;;;;;;;;4879712;29;20135;-85
2022/03/22 10:45:46;;;;;;;51.35;31.20;;;;;;;;;;4884532;29;20569;-86
2022/03/22 10:48:20;;;;;;;51.13;31.70;;;;;;;;;;4893101;29;20052;-85
2022/03/22 10:50:55;;;;;;;58.65;33.42;;;;;;;;;;4885747;29;20109;-86
2022/03/22 10:53:21;;;;;;;;;;;;;;;;;;4901252;29;20056;-86
2022/03/22 10:55:48;;;;;;;53.25;30.77;;;;;;;;;;4901320;29;20005;-86
2022/03/22 10:58:17;;;;;;;48.90;30.98;;;;;;;;;;4884117;29;20084;-86
2022/03/22 11:00:44;;;;;;;50.45;31.33;;;;;;;;;;4881612;29;20156;-85
2022/03/22 11:03:12;;;;;;;51.30;32.60;;;;;;;;;;4883749;29;20143;-86
2022/03/22 11:05:48;;;;;;;52.20;31.73;;;;;;;;;;4901857;29;20052;-86
2022/03/22 11:08:19;;;;;;;55.00;30.83;;;;;;;;;;4882236;29;20454;-86
2022/03/22 11:10:46;;;;;;;55.92;31.23;;;;;;;;;;4899348;29;20100;-86
2022/03/22 11:13:19;;;;;;;52.78;33.30;;;;;;;;;;4881708;29;20301;-86
2022/03/22 11:15:46;;;;;;;52.58;32.47;;;;;;;;;;4879532;29;20143;-85
2022/03/22 11:18:14;;;;;;;57.17;32.38;;;;;;;;;;4901208;29;20053;-85
2022/03/22 11:20:48;;;;;;;57.35;33.22;;;;;;;;;;4901330;29;20101;-86
2022/03/22 11:23:17;;;;;;;59.45;32.55;;;;;;;;;;4882378;29;20055;-87
2022/03/22 11:25:44;;;;;;;62.72;33.67;;;;;;;;;;4876289;29;20723;-85
2022/03/22 11:28:21;;;;;;;53.30;31.73;;;;;;;;;;4878277;29;20311;-86
2022/03/22 11:30:48;;;;;;;64.50;32.60;;;;;;;;;;4880170;29;20061;-86
2022/03/22 11:36:15;;;;;;;57.58;31.00;;;;;;;;;;4896524;29;20139;-86
2022/03/22 11:38:49;;;;;;;57.15;32.35;;;;;;;;;;4895589;29;20076;-86
2022/03/22 11:44:10;;;;;;;58.05;33.28;;;;;;;;;;4896629;29;20084;-87
2022/03/22 11:46:43;;;;;;;53.70;31.75;;;;;;;;;;4879018;29;20087;-86
2022/03/22 11:49:17;;;;;;;50.83;29.65;;;;;;;;;;4877660;29;20497;-85
2022/03/22 11:51:50;;;;;;;51.00;28.83;;;;;;;;;;4884984;29;20139;-86
2022/03/22 11:54:16;;;;;;;51.70;28.92;;;;;;;;;;4876338;29;20099;-86
2022/03/22 11:56:48;;;;;;;58.58;31.05;;;;;;;;;;4884839;29;20060;-86
2022/03/22 11:59:27;;;;;;;52.65;30.52;;;;;;;;;;4896170;29;20271;-86
2022/03/22 12:02:04;;;;;;;53.67;31.02;;;;;;;;;;4897716;29;20557;-86
2022/03/22 12:04:34;;;;;;;52.17;29.20;;;;;;;;;;4898062;29;20052;-86
2022/03/22 12:07:02;;;;;;;52.30;27.35;;;;;;;;;;4882028;29;20537;-86
2022/03/22 12:09:29;;;;;;;50.97;29.13;;;;;;;;;;4897816;29;20083;-87
2022/03/22 12:11:56;;;;;;;50.65;29.45;;;;;;;;;;4880595;29;20459;-87
2022/03/22 12:14:30;;;;;;;49.13;27.77;;;;;;;;;;4881251;29;20111;-86
2022/03/22 12:16:56;;;;;;;54.25;28.90;;;;;;;;;;4885363;29;20088;-87
2022/03/22 12:19:23;;;;;;;50.97;29.13;;;;;;;;;;4874652;29;20553;-86
2022/03/22 12:21:51;;;;;;;55.33;29.08;;;;;;;;;;4880079;29;20473;-84
2022/03/22 12:24:18;;;;;;;;;;;;;;;;;;4880162;29;20105;-86
2022/03/22 12:26:44;;;;;;;47.22;26.80;;;;;;;;;;4878207;29;20387;-86
2022/03/22 12:29:18;;;;;;;48.83;28.27;;;;;;;;;;4881598;29;20064;-86
2022/03/22 12:31:55;;;;;;;48.25;27.83;;;;;;;;;;4881189;29;20144;-86
2022/03/22 12:34:23;;;;;;;49.03;29.10;;;;;;;;;;4896488;29;20064;-86
2022/03/22 12:36:50;;;;;;;50.30;29.40;;;;;;;;;;4897289;29;20566;-86
2022/03/22 12:39:16;;;;;;;54.88;28.98;;;;;;;;;;4885641;29;20151;-86
2022/03/22 12:41:48;;;;;;;52.88;30.38;;;;;;;;;;4880402;29;20135;-87
2022/03/22 12:44:15;;;;;;;50.78;29.42;;;;;;;;;;4880022;29;20080;-86
2022/03/22 12:46:41;;;;;;;50.00;29.65;;;;;;;;;;4897485;29;20601;-87
2022/03/22 12:49:15;;;;;;;49.25;28.50;;;;;;;;;;4896340;29;20439;-87
2022/03/22 12:51:41;;;;;;;50.55;29.38;;;;;;;;;;4877854;29;20056;-86
2022/03/22 12:54:09;;;;;;;52.45;29.48;;;;;;;;;;4896590;29;20108;-87
2022/03/22 12:56:47;;;;;;;55.03;30.10;;;;;;;;;;4897059;29;20489;-86
2022/03/22 12:59:23;;;;;;;48.13;28.80;;;;;;;;;;4894690;29;20498;-87
2022/03/22 13:01:57;;;;;;;53.58;30.95;;;;;;;;;;4879412;29;20065;-86
2022/03/22 13:04:29;;;;;;;48.47;28.67;;;;;;;;;;4880279;29;20074;-87
2022/03/22 13:07:01;;;;;;;54.72;29.52;;;;;;;;;;4880774;29;20048;-86
2022/03/22 13:12:14;;;;;;;49.10;28.10;;;;;;;;;;4894856;29;20499;-86
2022/03/22 13:17:29;;;;;;;45.45;28.08;;;;;;;;;;4895518;29;20061;-87
2022/03/22 13:19:57;;;;;;;48.17;28.00;;;;;;;;;;4896495;29;20421;-88
2022/03/22 13:22:27;;;;;;;48.75;29.23;;;;;;;;;;4875397;29;20528;-86
2022/03/22 13:25:09;;;;;;;46.05;29.20;;;;;;;;;;4894767;29;20564;-87
2022/03/22 13:27:37;;;;;;;48.92;27.92;;;;;;;;;;4896332;29;20076;-86
2022/03/22 13:30:15;;;;;;;44.38;28.98;;;;;;;;;;4879894;29;20465;-86
2022/03/22 13:32:41;;;;;;;48.92;31.02;;;;;;;;;;4895208;29;20052;-85
2022/03/22 13:35:08;;;;;;;50.67;30.93;;;;;;;;;;4876581;29;20144;-87
2022/03/22 13:37:42;;;;;;;50.38;29.23;;;;;;;;;;4881904;29;20144;-87
2022/03/22 13:40:10;;;;;;;51.05;30.70;;;;;;;;;;4878410;29;20083;-86
2022/03/22 13:42:36;;;;;;;51.47;31.42;;;;;;;;;;4878828;29;20106;-86
2022/03/22 13:45:10;;;;;;;51.33;31.23;;;;;;;;;;4873662;29;20060;-86
2022/03/22 13:47:44;;;;;;;51.80;33.80;;;;;;;;;;4881460;29;20079;-86
2022/03/22 13:50:12;;;;;;;54.40;33.28;;;;;;;;;;4871150;29;20060;-87
2022/03/22 13:52:40;;;;;;;53.13;32.75;;;;;;;;;;4874872;29;20067;-85
2022/03/22 13:55:17;;;;;;;54.83;33.72;;;;;;;;;;4875589;29;20548;-87
2022/03/22 13:57:48;;;;;;;53.78;33.70;;;;;;;;;;4893054;29;20049;-87
2022/03/22 14:00:35;;;;;;;53.72;33.13;;;;;;;;;;4881222;29;20087;-85
2022/03/22 14:03:01;;;;;;;57.03;35.55;;;;;;;;;;4873881;29;20298;-87
2022/03/22 14:05:31;;;;;;;53.83;33.75;;;;;;;;;;4877057;29;20086;-87
2022/03/22 14:07:58;;;;;;;58.38;35.08;;;;;;;;;;4876298;29;20109;-86
2022/03/22 14:10:26;;;;;;;49.75;32.95;;;;;;;;;;4896099;29;20066;-86
2022/03/22 14:12:56;;;;;;;60.85;33.63;;;;;;;;;;4879738;29;20157;-89
2022/03/22 14:15:23;;;;;;;55.90;33.08;;;;;;;;;;4878412;29;20546;-86
2022/03/22 14:17:50;;;;;;;53.38;31.40;;;;;;;;;;4895352;29;20245;-85
2022/03/22 14:20:24;;;;;;;49.13;30.58;;;;;;;;;;4878884;29;20105;-87
2022/03/22 14:22:51;;;;;;;50.23;31.23;;;;;;;;;;4876801;29;20072;-87
2022/03/22 14:25:18;;;;;;;61.83;34.38;;;;;;;;;;4879382;29;20432;-86
2022/03/22 14:27:55;;;;;;;50.28;31.73;;;;;;;;;;4873036;29;20108;-86
2022/03/22 14:30:22;;;;;;;54.60;34.38;;;;;;;;;;4879854;28;20056;-86
2022/03/22 14:32:53;;;;;;;49.35;31.58;;;;;;;;;;4897706;29;20068;-87
2022/03/22 14:38:09;;;;;;;57.00;31.90;;;;;;;;;;4913299;29;20405;-86
2022/03/22 14:40:36;;;;;;;47.80;31.45;;;;;;;;;;4894863;29;20588;-85
2022/03/22 14:43:07;;;;;;;56.53;32.15;;;;;;;;;;4914275;29;20140;-86
2022/03/22 14:45:33;;;;;;;50.60;30.77;;;;;;;;;;4915408;29;20091;-87
2022/03/22 14:48:00;;;;;;;52.85;31.90;;;;;;;;;;4892997;29;20104;-87
2022/03/22 14:50:27;;;;;;;51.83;32.60;;;;;;;;;;4898518;29;20498;-86
2022/03/22 14:55:40;;;;;;;54.28;32.50;;;;;;;;;;4914919;29;20052;-86
2022/03/22 15:00:59;;;;;;;53.10;32.92;;;;;;;;;;4917732;29;20131;-86
2022/03/22 15:03:28;;;;;;;58.43;33.50;;;;;;;;;;4916557;29;20115;-86
2022/03/22 15:06:01;;;;;;;52.25;30.55;;;;;;;;;;4898342;29;20095;-87
2022/03/22 15:08:31;;;;;;;48.17;29.08;;;;;;;;;;4900318;29;20139;-86
2022/03/22 15:10:57;;;;;;;56.80;30.65;;;;;;;;;;4901061;29;20063;-87
2022/03/22 15:13:25;;;;;;;49.03;32.45;;;;;;;;;;4915248;29;20072;-87
2022/03/22 15:15:59;;;;;;;50.10;31.00;;;;;;;;;;4901911;29;20108;-86
2022/03/22 15:18:26;;;;;;;57.78;34.28;;;;;;;;;;4904072;29;20076;-86
2022/03/22 15:20:52;;;;;;;52.78;31.25;;;;;;;;;;4905632;29;20092;-86
2022/03/22 15:23:22;;;;;;;56.10;31.60;;;;;;;;;;4900065;29;20625;-86